« 午後 富山空港 2020/4/2 thu | トップページ | 定点 富山空港他 2020/4/8 wed »

2020/04/05

定点 富山空港 2020/4/5 sun

富山市の「新型コロナ感染防止」は、非密3原則(集近閉)。県内の感染ルートは、京産大、愛知からの先公、ライブハウス。周辺にも、関係しそうな問い合わせが来ていると耳にする。ですが、原則を守って飛行活動。(本日小生が接触した人 駐車場で某氏、スタンドの姉ちゃん(パンフなんて持ってこないで))

RJNT 042300Z 22007KT 9999 VCSH FEW020 SCT060 BKN090 06/03 Q1018

20200405_rjnt_00ja89an

20200405_rjnt_01ja89an

ANA313 RJTT-RJNT JA89AN B737-8AL

RJNT 050000Z 22006KT 180V260 9999 FEW020 BKN060 08/02 Q1018

20200405_rjnt_02ja119w

朝からなにやら大風呂敷

20200405_rjnt_03ja119w

2機並び

20200405_rjnt_04ja119w

これから式典か・・・

20200405_rjnt_05ja89an

ANA316 RJNT-RJTT JA89AN B737-8AL

20200405_rjnt_06ja89an

晩まで帰ってイイぞ。そんな感じ。

20200405_rjnt_07ja6502

JA6502↑ AS350B3 AKF

RJNT 050200Z 23005KT 200V280 9999 VCSH FEW020 SCT045 BKN060 09/M01 Q1018

20200405_rjnt_08ja119w

再び二機並び

20200405_rjnt_09ja119w

無事式典は終わったようです。

RJNT 050300Z 25007KT 210V290 9999 -SHRA FEW020 SCT050 BKN060 09/M02 Q1018

20200405_rjnt_10ja119w

一人ポツンと寂しそう。

20200405_rjnt_11ja6502

JA6502↓

RJNT 050400Z 27013KT 9999 -SHRA FEW020 SCT045 BKN060 09/M00 Q1017

20200405_rjnt_12ja119w

午後から訓練へ

20200405_rjnt_13ja119w

黄色いジャケットが新人君達

RJNT 050500Z 19008KT 150V210 9999 -SHRA FEW015 SCT060 BKN090 09/01 Q101

20200405_rjnt_14ja119w

JA119W AW139 富山県消防防災

|

« 午後 富山空港 2020/4/2 thu | トップページ | 定点 富山空港他 2020/4/8 wed »

富山空港」カテゴリの記事

コメント

コメントを書く



(ウェブ上には掲載しません)


コメントは記事投稿者が公開するまで表示されません。



« 午後 富山空港 2020/4/2 thu | トップページ | 定点 富山空港他 2020/4/8 wed »